Hot Springs, VA

9:08 AM EDT on March 23, 2017 (GMT -0400)
Ingalls

Weather History for KHSP - January, 2012

Change the Weather History Date:

Sunday, January 15, 2012

  Actual Average Record
Temperature  
Mean Temperature 18 °F -  
Max Temperature 21 °F 30 °F 57 °F (2007)
Min Temperature 15 °F 17 °F 5 °F (2003)
Degree Days  
Heating Degree Days 47    
Moisture  
Dew Point 13 °F    
Average Humidity 81    
Maximum Humidity 100    
Minimum Humidity 54    
Precipitation  
Precipitation 0.00 in - - ()
Sea Level Pressure  
Sea Level Pressure 30.20 in    
Wind  
Wind Speed 10 mph (West)    
Max Wind Speed 13 mph    
Max Gust Speed 18 mph    
Visibility 10 miles    
Events Snow    
Averages and records for this station are not official NWS values.
T = Trace of Precipitation, MM = Missing Value Source: NWS Daily Summary

Daily Weather History Graph

Daily Weather History Graph

Search for Another Location

Airport or City:

Trip Planner

Search our weather history database for the weather conditions in past years. The results will help you decide how hot, cold, wet, or windy it might be!

Date:

Astronomy

Jan. 15, 2012 Rise Set
Actual Time 7:34 AM EST 5:23 PM EST
Civil Twilight 7:05 AM EST 5:52 PM EST
Nautical Twilight 6:32 AM EST 6:24 PM EST
Astronomical Twilight 6:01 AM EST 6:56 PM EST
Moon No Moon Rise 10:59 AM EST (1/15)
Length of Visible Light 10h 46m
Length of Day
9h 49m
Waning Gibbous, 58% of the Moon is Illuminated
Jan 15
Waning Gibbous
Jan 16
Last Quarter
Jan 23
New
Jan 30
First Quarter
Feb 7
Full

Hourly Weather History & Observations

Time (EST) Temp. Windchill Dew Point Humidity Pressure Visibility Wind Dir Wind Speed Gust Speed Precip Events Conditions
12:16 AM 17.6 °F 4.3 °F 15.8 °F 93% 29.97 in 10.0 mi West 12.7 mph - N/A   Clear
12:36 AM 17.6 °F 5.0 °F 15.8 °F 93% 29.98 in 10.0 mi West 11.5 mph - N/A   Scattered Clouds
12:56 AM 17.6 °F 5.7 °F 15.8 °F 93% 29.97 in 10.0 mi West 10.4 mph 16.1 mph N/A   Mostly Cloudy
1:16 AM 17.6 °F 5.7 °F 15.8 °F 93% 29.97 in 10.0 mi West 10.4 mph - N/A   Overcast
1:37 AM 17.6 °F 5.7 °F 15.8 °F 93% 29.98 in 10.0 mi West 10.4 mph - N/A   Mostly Cloudy
1:56 AM 17.6 °F 4.3 °F 15.8 °F 93% 29.98 in 10.0 mi WNW 12.7 mph - N/A   Scattered Clouds
2:16 AM 17.6 °F 4.3 °F 15.8 °F 93% 29.99 in 10.0 mi West 12.7 mph - N/A   Scattered Clouds
2:36 AM 17.6 °F 5.0 °F 15.8 °F 93% 29.99 in 10.0 mi WNW 11.5 mph - N/A   Scattered Clouds
2:56 AM 17.6 °F 4.3 °F 17.6 °F 100% 30.00 in 10.0 mi West 12.7 mph - N/A   Mostly Cloudy
3:16 AM 17.6 °F 5.0 °F 17.6 °F 100% 30.00 in 10.0 mi West 11.5 mph - N/A   Overcast
3:36 AM 17.6 °F 4.3 °F 17.6 °F 100% 30.01 in 10.0 mi West 12.7 mph - N/A   Overcast
3:56 AM 17.6 °F 5.0 °F 17.6 °F 100% 30.02 in 10.0 mi WNW 11.5 mph - N/A   Overcast
4:16 AM 17.6 °F 5.0 °F 17.6 °F 100% 30.03 in 10.0 mi West 11.5 mph - N/A   Overcast
4:36 AM 17.6 °F 5.7 °F 17.6 °F 100% 30.04 in 10.0 mi West 10.4 mph - N/A   Overcast
4:56 AM 17.6 °F 6.4 °F 17.6 °F 100% 30.05 in 10.0 mi West 9.2 mph - N/A   Overcast
5:16 AM 17.6 °F 6.4 °F 15.8 °F 93% 30.06 in 10.0 mi West 9.2 mph - N/A   Overcast
5:37 AM 17.6 °F 6.4 °F 15.8 °F 93% 30.06 in 10.0 mi West 9.2 mph - N/A   Overcast
5:56 AM 17.6 °F 6.4 °F 15.8 °F 93% 30.08 in 10.0 mi West 9.2 mph - N/A Snow Light Snow
6:16 AM 17.6 °F 5.7 °F 15.8 °F 93% 30.09 in 10.0 mi WNW 10.4 mph - N/A Snow Light Snow
6:36 AM 15.8 °F 6.1 °F 15.8 °F 100% 30.10 in 10.0 mi WNW 6.9 mph - N/A Snow Light Snow
7:16 AM 15.8 °F 6.1 °F 15.8 °F 100% 30.13 in 10.0 mi WNW 6.9 mph - N/A Snow Light Snow
7:37 AM 15.8 °F 4.2 °F 14.0 °F 93% 30.14 in 10.0 mi NW 9.2 mph - N/A Snow Light Snow
8:16 AM 15.8 °F 5.1 °F 14.0 °F 93% 30.17 in 7.0 mi WNW 8.1 mph - N/A Snow Light Snow
8:56 AM 15.8 °F 4.2 °F 14.0 °F 93% 30.19 in 5.0 mi NW 9.2 mph - N/A Snow Light Snow
9:16 AM 15.8 °F 5.1 °F 14.0 °F 93% 30.20 in 4.0 mi WNW 8.1 mph 18.4 mph N/A Snow Light Snow
9:37 AM 15.8 °F 6.1 °F 14.0 °F 93% 30.21 in 4.0 mi WNW 6.9 mph - N/A Snow Light Snow
9:56 AM 15.8 °F 2.7 °F 14.0 °F 93% 30.22 in 5.0 mi WNW 11.5 mph - N/A Snow Light Snow
10:16 AM 15.8 °F 5.1 °F 14.0 °F 93% 30.23 in 7.0 mi WNW 8.1 mph 17.3 mph N/A Snow Light Snow
10:56 AM 17.6 °F 5.0 °F 12.2 °F 79% 30.24 in 10.0 mi West 11.5 mph 17.3 mph N/A   Overcast
11:16 AM 17.6 °F 5.7 °F 12.2 °F 79% 30.24 in 10.0 mi WNW 10.4 mph - N/A   Overcast
11:37 AM 17.6 °F 7.3 °F 12.2 °F 79% 30.25 in 10.0 mi NW 8.1 mph - N/A Snow Light Snow
11:56 AM 17.6 °F 8.2 °F 12.2 °F 79% 30.25 in 10.0 mi WNW 6.9 mph 16.1 mph N/A   Overcast
12:16 PM 19.4 °F 8.6 °F 12.2 °F 74% 30.25 in 10.0 mi WNW 9.2 mph - N/A   Overcast
12:36 PM 19.4 °F 7.9 °F 12.2 °F 74% 30.25 in 10.0 mi West 10.4 mph - N/A   Overcast
1:37 PM 19.4 °F 7.2 °F 12.2 °F 74% 30.26 in 10.0 mi West 11.5 mph - N/A   Scattered Clouds
1:56 PM 21.2 °F 12.6 °F 12.2 °F 68% 30.26 in 10.0 mi WNW 6.9 mph - N/A   Mostly Cloudy
2:16 PM 21.2 °F 10.1 °F 12.2 °F 68% 30.26 in 10.0 mi West 10.4 mph 16.1 mph N/A   Scattered Clouds
2:36 PM 21.2 °F 9.5 °F 12.2 °F 68% 30.27 in 10.0 mi West 11.5 mph - N/A   Clear
2:56 PM 21.2 °F 11.7 °F 12.2 °F 68% 30.27 in 10.0 mi West 8.1 mph - N/A   Clear
3:16 PM 21.2 °F 8.9 °F 12.2 °F 68% 30.27 in 10.0 mi West 12.7 mph - N/A   Clear
3:36 PM 21.2 °F 10.9 °F 12.2 °F 68% 30.28 in 10.0 mi West 9.2 mph 16.1 mph N/A   Clear
3:57 PM 21.2 °F 11.7 °F 10.4 °F 63% 30.29 in 10.0 mi West 8.1 mph - N/A   Clear
4:16 PM 21.2 °F 11.7 °F 10.4 °F 63% 30.29 in 10.0 mi West 8.1 mph - N/A   Clear
4:36 PM 21.2 °F 12.6 °F 10.4 °F 63% 30.30 in 10.0 mi West 6.9 mph - N/A   Clear
4:56 PM 21.2 °F 10.9 °F 10.4 °F 63% 30.31 in 10.0 mi West 9.2 mph - N/A   Clear
5:16 PM 19.4 °F 9.5 °F 10.4 °F 68% 30.31 in 10.0 mi West 8.1 mph - N/A   Clear
5:36 PM 19.4 °F 8.6 °F 8.6 °F 63% 30.31 in 10.0 mi West 9.2 mph - N/A   Clear
6:16 PM 17.6 °F 7.3 °F 8.6 °F 68% 30.33 in 10.0 mi West 8.1 mph - N/A   Clear
6:38 PM 17.6 °F 5.0 °F 10.4 °F 73% 30.34 in 10.0 mi West 11.5 mph - N/A   Clear
6:57 PM 17.6 °F 5.0 °F 10.4 °F 73% 30.34 in 10.0 mi West 11.5 mph - N/A   Clear
7:16 PM 17.6 °F 5.7 °F 10.4 °F 73% 30.35 in 10.0 mi West 10.4 mph - N/A   Clear
7:35 PM 17.6 °F 7.3 °F 10.4 °F 73% 30.35 in 10.0 mi West 8.1 mph - N/A   Clear
7:56 PM 17.6 °F 8.2 °F 10.4 °F 73% 30.35 in 10.0 mi West 6.9 mph - N/A   Clear
8:15 PM 17.6 °F 8.2 °F - N/A% 30.35 in 10.0 mi West 6.9 mph - N/A   Clear
8:35 PM 17.6 °F 6.4 °F - N/A% 30.35 in 10.0 mi WSW 9.2 mph - N/A   Clear
8:55 PM 17.6 °F 7.3 °F - N/A% 30.36 in 10.0 mi WSW 8.1 mph - N/A   Clear
9:17 PM 17.6 °F 6.4 °F 10.4 °F 73% 30.37 in 10.0 mi WSW 9.2 mph - N/A   Clear
9:56 PM 17.6 °F 6.4 °F 10.4 °F 73% 30.37 in 10.0 mi WSW 9.2 mph - N/A   Unknown
10:15 PM 17.6 °F 7.3 °F 10.4 °F 73% 30.37 in 10.0 mi WSW 8.1 mph - N/A   Clear
10:35 PM 19.4 °F 8.6 °F 12.2 °F 74% 30.37 in 10.0 mi SW 9.2 mph - N/A   Clear
10:55 PM 19.4 °F 7.9 °F 12.2 °F 74% 30.37 in 10.0 mi WSW 10.4 mph - N/A   Clear
11:15 PM 21.2 °F 10.9 °F 8.6 °F 58% 30.37 in 10.0 mi SW 9.2 mph - N/A   Clear
11:35 PM 21.2 °F 12.6 °F 6.8 °F 54% 30.37 in 10.0 mi SW 6.9 mph - N/A   Clear
11:57 PM 21.2 °F 12.6 °F 8.6 °F 58% 30.37 in 10.0 mi SSW 6.9 mph - N/A   Clear